Time;durP1;ratioP1;P1;durP2;ratioP2;P2;SDS_P1;SDS_P2;PMS_P1;PMS_P2;Temp;Humidity;BMP_temperature;BMP_pressure;BME280_temperature;BME280_humidity;BME280_pressure;Samples;Min_cycle;Max_cycle;Signal;HPM_P1;HPM_P2
2021/12/11 00:01:25;;;;;;;85.32;29.77;;;;;;;1.84;95.03;100530.63;5044029;28;20063;-72
2021/12/11 00:03:58;;;;;;;79.35;30.30;;;;;;;1.84;94.78;100544.38;5044200;28;20295;-72
2021/12/11 00:06:35;;;;;;;94.82;31.38;;;;;;;1.81;94.63;100539.06;5048685;28;20041;-72
2021/12/11 00:09:11;;;;;;;84.00;28.77;;;;;;;1.81;94.52;100544.22;5044164;28;20045;-72
2021/12/11 00:11:40;;;;;;;81.38;29.35;;;;;;;1.80;94.61;100550.13;5044110;28;20025;-72
2021/12/11 00:14:09;;;;;;;92.35;31.08;;;;;;;1.81;94.76;100556.16;5043645;28;20049;-72
2021/12/11 00:16:36;;;;;;;89.57;30.00;;;;;;;1.79;94.68;100561.22;5046748;28;20214;-72
2021/12/11 00:19:08;;;;;;;78.45;28.40;;;;;;;1.77;93.93;100567.06;5043429;28;20302;-72
2021/12/11 00:21:34;;;;;;;82.10;28.50;;;;;;;1.75;94.38;100574.69;5043663;28;20036;-72
2021/12/11 00:24:05;;;;;;;90.18;30.95;;;;;;;1.74;94.50;100580.63;5043883;28;20071;-72
2021/12/11 00:26:41;;;;;;;83.18;29.95;;;;;;;1.73;93.99;100581.44;5042223;28;20026;-72
2021/12/11 00:29:09;;;;;;;97.18;32.60;;;;;;;1.72;94.40;100589.94;5045431;28;20028;-72
2021/12/11 00:31:37;;;;;;;91.63;29.85;;;;;;;1.70;93.98;100587.28;5043269;28;20045;-72
2021/12/11 00:34:09;;;;;;;93.32;31.23;;;;;;;1.69;94.61;100597.47;5044689;28;20090;-72
2021/12/11 00:36:34;;;;;;;101.07;31.10;;;;;;;1.68;94.80;100608.53;5043173;28;20156;-72
2021/12/11 00:39:06;;;;;;;90.78;29.85;;;;;;;1.68;94.23;100603.38;5043042;28;20048;-72
2021/12/11 00:41:33;;;;;;;96.47;30.58;;;;;;;1.68;94.48;100609.44;5043172;28;20031;-72
2021/12/11 00:44:01;;;;;;;92.97;31.67;;;;;;;1.68;94.31;100608.53;5041867;28;20069;-72
2021/12/11 00:46:28;;;;;;;90.72;29.92;;;;;;;1.63;94.38;100609.97;5050200;28;20033;-72
2021/12/11 00:48:55;;;;;;;95.18;29.67;;;;;;;1.61;94.00;100619.25;5042818;28;20069;-72
2021/12/11 00:51:22;;;;;;;92.57;29.65;;;;;;;1.59;94.30;100623.44;5042971;28;20029;-72
2021/12/11 00:53:51;;;;;;;93.20;30.67;;;;;;;1.55;94.16;100624.94;5042915;28;20037;-72
2021/12/11 00:56:38;;;;;;;90.10;30.27;;;;;;;1.54;94.11;100636.91;5046596;28;20092;-72
2021/12/11 00:59:08;;;;;;;92.88;31.35;;;;;;;1.47;93.20;100639.91;5042603;28;20045;-72
2021/12/11 01:01:45;;;;;;;99.13;32.30;;;;;;;1.46;94.17;100644.97;5042803;28;20021;-72
2021/12/11 01:04:16;;;;;;;96.32;33.00;;;;;;;1.43;94.44;100645.66;5042860;28;20041;-72
2021/12/11 01:06:50;;;;;;;92.55;32.60;;;;;;;1.40;93.96;100658.34;5044241;28;20013;-72
2021/12/11 01:09:20;;;;;;;98.47;32.25;;;;;;;1.36;94.25;100659.84;5074728;28;20024;-72
2021/12/11 01:11:56;;;;;;;87.00;32.00;;;;;;;1.32;94.01;100662.16;5042407;28;20087;-72
2021/12/11 01:14:37;;;;;;;88.35;30.85;;;;;;;1.29;93.95;100667.09;5042430;28;20233;-72
2021/12/11 01:17:12;;;;;;;91.78;31.75;;;;;;;1.24;93.82;100666.81;5044113;28;20017;-72
2021/12/11 01:19:41;;;;;;;103.20;34.38;;;;;;;1.19;93.88;100674.25;5042686;28;20044;-72
2021/12/11 01:22:21;;;;;;;114.53;37.42;;;;;;;1.18;94.51;100677.63;5037250;28;20017;-72
2021/12/11 01:24:48;;;;;;;95.28;29.05;;;;;;;1.17;94.88;100683.56;5041700;28;20052;-72
2021/12/11 01:27:17;;;;;;;98.88;29.48;;;;;;;1.15;94.76;100695.41;5044206;28;20025;-72
2021/12/11 01:29:45;;;;;;;92.50;28.98;;;;;;;1.12;94.71;100695.22;5043268;28;20034;-72
2021/12/11 01:32:11;;;;;;;84.88;28.60;;;;;;;1.10;94.34;100699.41;5042064;28;20088;-72
2021/12/11 01:34:38;;;;;;;76.47;26.48;;;;;;;1.09;94.36;100707.00;5074396;28;20171;-72
2021/12/11 01:37:04;;;;;;;80.13;28.30;;;;;;;1.05;94.61;100716.19;5043139;28;20052;-72
2021/12/11 01:39:35;;;;;;;86.43;28.98;;;;;;;1.03;94.52;100722.91;5044265;28;20309;-72
2021/12/11 01:42:05;;;;;;;78.78;27.27;;;;;;;1.02;94.19;100726.28;5037742;28;20021;-72
2021/12/11 01:44:35;;;;;;;79.30;27.92;;;;;;;1.01;94.34;100742.44;5041466;28;20041;-72
2021/12/11 01:47:25;;;;;;;83.50;27.70;;;;;;;1.04;94.32;100746.09;5043427;28;20068;-72
2021/12/11 01:49:54;;;;;;;74.88;26.50;;;;;;;1.00;93.63;100743.22;5041784;28;20132;-72
2021/12/11 01:52:34;;;;;;;85.93;27.15;;;;;;;1.01;94.04;100751.06;5041862;28;20055;-72
2021/12/11 01:55:00;;;;;;;81.93;27.08;;;;;;;1.00;93.58;100756.97;5048455;28;20017;-72
2021/12/11 01:57:30;;;;;;;82.82;27.27;;;;;;;1.00;93.70;100774.03;5040484;28;20167;-72
2021/12/11 02:00:01;;;;;;;69.47;24.63;;;;;;;0.96;92.74;100779.78;5042068;28;20292;-72
2021/12/11 02:02:35;;;;;;;76.25;26.38;;;;;;;0.93;93.72;100783.03;5049622;28;20028;-72
2021/12/11 02:05:02;;;;;;;82.30;28.40;;;;;;;0.94;93.38;100794.19;5036512;28;20048;-72
2021/12/11 02:07:41;;;;;;;82.85;28.08;;;;;;;0.92;93.42;100794.09;5040243;28;20298;-72
2021/12/11 02:10:19;;;;;;;78.45;25.15;;;;;;;0.93;93.52;100797.53;5041743;28;20418;-71
2021/12/11 02:12:45;;;;;;;74.70;25.98;;;;;;;0.88;93.95;100792.13;5042016;28;20036;-72
2021/12/11 02:15:15;;;;;;;76.90;26.75;;;;;;;0.86;94.55;100799.72;5043064;28;20037;-72
2021/12/11 02:17:55;;;;;;;79.25;25.58;;;;;;;0.85;93.74;100799.63;5041819;28;20124;-72
2021/12/11 02:20:30;;;;;;;80.38;27.40;;;;;;;0.81;93.86;100808.81;5041709;28;20017;-72
2021/12/11 02:22:56;;;;;;;89.72;28.05;;;;;;;0.76;93.69;100815.34;5041594;28;20047;-71
2021/12/11 02:25:27;;;;;;;87.82;27.88;;;;;;;0.75;94.30;100816.13;5041570;28;20048;-71
2021/12/11 02:27:59;;;;;;;85.78;28.63;;;;;;;0.75;94.40;100812.69;5042058;28;20087;-72
2021/12/11 02:30:40;;;;;;;85.30;28.02;;;;;;;0.77;93.62;100822.25;5049933;28;20936;-71
2021/12/11 02:33:17;;;;;;;78.25;25.80;;;;;;;0.80;93.64;100827.56;5041646;28;20100;-71
2021/12/11 02:35:56;;;;;;;91.18;28.33;;;;;;;0.79;93.07;100832.59;5034822;28;20260;-72
2021/12/11 02:38:39;;;;;;;89.93;27.70;;;;;;;0.80;94.07;100837.81;5048162;28;20227;-72
2021/12/11 02:41:15;;;;;;;89.18;27.95;;;;;;;0.78;93.41;100834.28;5041892;28;20033;-72
2021/12/11 02:43:48;;;;;;;91.95;28.80;;;;;;;0.77;93.94;100847.91;5042412;28;20027;-72
2021/12/11 02:46:21;;;;;;;88.43;27.95;;;;;;;0.76;94.10;100848.69;5041056;28;20097;-72
2021/12/11 02:48:54;;;;;;;88.38;28.52;;;;;;;0.75;93.49;100853.72;5041619;28;20029;-72
2021/12/11 02:51:31;;;;;;;85.97;27.10;;;;;;;0.74;93.76;100842.56;5041352;28;20033;-72
2021/12/11 02:54:09;;;;;;;89.63;28.00;;;;;;;0.74;94.17;100859.63;5042509;28;20017;-72
2021/12/11 02:56:39;;;;;;;88.73;28.70;;;;;;;0.75;94.85;100863.97;5043992;28;20056;-72
2021/12/11 02:59:09;;;;;;;82.18;27.48;;;;;;;0.76;94.57;100866.63;5052562;28;20074;-72
2021/12/11 03:01:39;;;;;;;86.85;26.27;;;;;;;0.77;93.81;100873.53;5043828;28;20045;-71
2021/12/11 03:04:35;;;;;;;84.97;26.60;;;;;;;0.80;94.34;100872.84;5045375;28;20021;-72
2021/12/11 03:07:05;;;;;;;84.22;27.08;;;;;;;0.79;94.44;100877.06;5040109;28;20021;-72
2021/12/11 03:09:35;;;;;;;85.63;27.30;;;;;;;0.81;94.49;100878.06;5045062;28;20033;-72
2021/12/11 03:12:06;;;;;;;91.13;26.63;;;;;;;0.81;94.86;100878.06;5043886;28;20025;-72
2021/12/11 03:14:31;;;;;;;92.15;29.05;;;;;;;0.82;94.79;100887.53;5078580;28;20036;-72
2021/12/11 03:16:57;;;;;;;88.53;27.02;;;;;;;0.84;94.52;100891.09;5045335;28;20021;-72
2021/12/11 03:19:29;;;;;;;84.60;27.63;;;;;;;0.84;94.85;100888.53;5045257;28;20077;-72
2021/12/11 03:21:56;;;;;;;83.55;27.27;;;;;;;0.85;93.76;100900.56;5045464;28;20084;-72
2021/12/11 03:24:23;;;;;;;76.72;25.35;;;;;;;0.82;93.67;100902.03;5076657;28;20056;-72
2021/12/11 03:26:51;;;;;;;75.10;23.73;;;;;;;0.78;94.01;100907.75;5045392;28;20025;-72
2021/12/11 03:29:16;;;;;;;87.90;27.02;;;;;;;0.76;94.18;100907.66;5048209;28;20120;-72
2021/12/11 03:31:43;;;;;;;85.07;26.92;;;;;;;0.75;93.62;100913.56;5044808;28;20080;-72
2021/12/11 03:34:14;;;;;;;87.25;27.77;;;;;;;0.74;94.20;100909.25;5044384;28;20048;-72
2021/12/11 03:36:41;;;;;;;79.35;26.23;;;;;;;0.71;93.96;100916.75;5038978;28;20089;-72
2021/12/11 03:39:11;;;;;;;87.03;25.40;;;;;;;0.68;94.19;100912.31;5046516;28;20200;-72
2021/12/11 03:41:37;;;;;;;87.38;26.23;;;;;;;0.67;94.46;100918.22;5044561;28;20189;-72
2021/12/11 03:44:05;;;;;;;82.63;26.42;;;;;;;0.65;94.12;100921.47;5043970;28;20041;-72
2021/12/11 03:46:31;;;;;;;73.85;24.13;;;;;;;0.62;94.09;100926.41;5044263;28;20033;-72
2021/12/11 03:49:01;;;;;;;66.78;23.05;;;;;;;0.58;93.67;100925.31;5043030;28;20029;-72
2021/12/11 03:51:32;;;;;;;67.50;22.85;;;;;;;0.56;93.76;100929.44;5048739;28;20033;-72
2021/12/11 03:54:01;;;;;;;66.05;23.42;;;;;;;0.54;93.54;100925.91;5046577;28;20053;-72
2021/12/11 03:56:27;;;;;;;69.03;23.60;;;;;;;0.55;93.56;100935.38;5044305;28;20022;-72
2021/12/11 03:58:54;;;;;;;80.88;23.80;;;;;;;0.56;94.04;100929.44;5043831;28;20091;-72
2021/12/11 04:01:27;;;;;;;78.15;24.67;;;;;;;0.58;93.24;100932.09;5044026;28;20131;-72
2021/12/11 04:04:02;;;;;;;80.65;25.77;;;;;;;0.60;94.38;100938.25;5044177;28;20031;-72
2021/12/11 04:06:28;;;;;;;80.22;24.40;;;;;;;0.63;94.37;100934.19;5049596;28;20021;-72
2021/12/11 04:08:56;;;;;;;85.45;26.40;;;;;;;0.65;94.89;100940.31;5047297;28;20037;-72
2021/12/11 04:11:26;;;;;;;76.50;25.05;;;;;;;0.67;94.44;100945.53;5043401;28;20017;-72
2021/12/11 04:13:56;;;;;;;97.05;26.88;;;;;;;0.69;94.53;100943.97;5043559;28;20087;-72
2021/12/11 04:16:22;;;;;;;71.90;23.52;;;;;;;0.72;93.71;100950.97;5037547;28;20017;-72
2021/12/11 04:18:49;;;;;;;69.78;23.77;;;;;;;0.71;94.18;100957.78;5048960;28;20221;-71
2021/12/11 04:21:15;;;;;;;74.15;24.02;;;;;;;0.71;95.15;100964.56;5043072;28;20048;-72
2021/12/11 04:23:41;;;;;;;78.57;24.80;;;;;;;0.72;94.81;100964.66;5043057;28;20269;-72
2021/12/11 04:26:07;;;;;;;78.85;26.00;;;;;;;0.75;95.30;100972.56;5041460;28;20014;-72
2021/12/11 04:28:36;;;;;;;79.85;24.70;;;;;;;0.77;95.61;100973.56;5049918;28;20033;-72
2021/12/11 04:31:07;;;;;;;90.50;27.77;;;;;;;0.83;95.48;100976.53;5042143;28;20049;-72
2021/12/11 04:33:38;;;;;;;82.22;26.25;;;;;;;0.88;95.90;100978.50;5043228;28;20037;-72
2021/12/11 04:36:08;;;;;;;80.25;24.83;;;;;;;0.91;95.70;100981.25;5043041;28;20021;-72
2021/12/11 04:38:34;;;;;;;87.10;26.95;;;;;;;0.93;95.71;100979.66;5074924;28;20030;-72
2021/12/11 04:41:00;;;;;;;87.57;27.25;;;;;;;0.97;95.44;100984.22;5043199;28;20036;-71
2021/12/11 04:43:26;;;;;;;90.30;27.25;;;;;;;1.00;96.33;100982.75;5044551;28;20271;-71
2021/12/11 04:45:59;;;;;;;88.03;26.65;;;;;;;1.03;95.85;100990.63;5043993;28;20276;-71
2021/12/11 04:53:51;;;;;;;87.57;27.27;;;;;;;1.12;96.42;101007.41;5042714;28;20045;-71
2021/12/11 04:56:39;;;;;;;79.57;26.70;;;;;;;1.15;96.72;101012.75;5043933;28;20033;-71
2021/12/11 05:02:18;;;;;;;87.40;27.50;;;;;;;1.21;96.60;101016.56;5042507;28;20275;-71
2021/12/11 05:04:58;;;;;;;90.85;27.60;;;;;;;1.25;96.69;101016.78;5041731;28;20025;-72
2021/12/11 05:07:31;;;;;;;95.35;30.08;;;;;;;1.29;97.10;101016.16;5078161;28;20280;-71
2021/12/11 05:10:16;;;;;;;97.47;29.08;;;;;;;1.32;97.61;101021.53;5042752;28;20021;-71
2021/12/11 05:12:45;;;;;;;92.30;28.70;;;;;;;1.36;96.96;101026.94;5074719;28;20041;-71
2021/12/11 05:15:21;;;;;;;90.37;28.27;;;;;;;1.40;97.37;101033.16;5042619;28;20041;-72
2021/12/11 05:17:48;;;;;;;100.78;28.80;;;;;;;1.43;97.54;101023.06;5042645;28;20028;-72
2021/12/11 05:20:16;;;;;;;102.13;29.58;;;;;;;1.44;97.07;101027.44;5043220;28;20030;-71
2021/12/11 05:22:41;;;;;;;98.90;30.13;;;;;;;1.48;97.60;101039.66;5041905;28;20045;-71
2021/12/11 05:25:09;;;;;;;104.20;30.65;;;;;;;1.50;97.43;101042.34;5041895;28;20091;-71
2021/12/11 05:27:35;;;;;;;96.93;29.33;;;;;;;1.52;97.50;101046.78;5042414;28;20029;-72
2021/12/11 05:30:01;;;;;;;97.95;29.30;;;;;;;1.55;97.62;101053.75;5042038;28;20064;-71
2021/12/11 05:32:27;;;;;;;100.65;30.05;;;;;;;1.59;98.13;101057.44;5042036;28;20049;-71
2021/12/11 05:34:54;;;;;;;95.43;29.20;;;;;;;1.61;97.83;101054.19;5042647;28;20036;-71
2021/12/11 05:37:21;;;;;;;98.95;29.58;;;;;;;1.64;97.65;101056.06;5040787;28;20037;-72
2021/12/11 05:39:47;;;;;;;98.45;29.33;;;;;;;1.66;97.79;101059.59;5041991;28;20033;-71
2021/12/11 05:42:13;;;;;;;91.50;29.30;;;;;;;1.69;98.27;101065.81;5042139;28;20038;-72
2021/12/11 05:44:39;;;;;;;97.43;28.00;;;;;;;1.70;97.57;101064.13;5074792;28;20387;-71
2021/12/11 05:47:05;;;;;;;91.00;29.27;;;;;;;1.72;97.63;101067.69;5042370;28;20030;-72
2021/12/11 05:49:31;;;;;;;92.13;29.45;;;;;;;1.72;97.60;101072.81;5042001;28;20036;-72
2021/12/11 05:51:58;;;;;;;97.20;29.88;;;;;;;1.72;97.21;101076.28;5043915;28;20091;-71
2021/12/11 05:54:26;;;;;;;96.63;28.52;;;;;;;1.74;97.81;101073.81;5041686;28;20026;-71
2021/12/11 05:56:56;;;;;;;97.50;30.63;;;;;;;1.76;97.66;101076.47;5042571;28;20315;-72
2021/12/11 05:59:23;;;;;;;93.60;29.58;;;;;;;1.78;98.16;101086.03;5042589;28;20050;-72
2021/12/11 06:01:56;;;;;;;101.70;30.60;;;;;;;1.80;98.25;101075.88;5042058;28;20267;-72
2021/12/11 06:04:26;;;;;;;104.70;30.92;;;;;;;1.83;98.66;101074.38;5042981;28;20092;-71
2021/12/11 06:06:53;;;;;;;95.40;28.33;;;;;;;1.86;97.78;101078.84;5042107;28;20053;-71
2021/12/11 06:09:21;;;;;;;92.07;28.83;;;;;;;1.87;98.17;101078.94;5041630;28;20294;-72
2021/12/11 06:11:49;;;;;;;105.05;29.55;;;;;;;1.89;98.56;101084.16;5036187;28;20037;-72
2021/12/11 06:14:19;;;;;;;90.88;28.85;;;;;;;1.89;97.72;101086.72;5073870;28;20024;-72
2021/12/11 06:16:46;;;;;;;91.97;28.88;;;;;;;1.90;98.54;101094.53;5073990;28;20021;-71
2021/12/11 06:19:12;;;;;;;89.28;28.98;;;;;;;1.92;98.13;101092.06;5073908;28;20063;-72
2021/12/11 06:21:37;;;;;;;93.18;30.08;;;;;;;1.96;98.05;101104.31;5041799;28;20033;-71
2021/12/11 06:24:04;;;;;;;93.15;29.30;;;;;;;1.97;98.30;101102.63;5041286;28;20088;-72
2021/12/11 06:26:30;;;;;;;90.57;28.15;;;;;;;1.99;98.12;101108.75;5046548;28;20184;-71
2021/12/11 06:28:56;;;;;;;89.60;29.60;;;;;;;2.00;97.92;101110.50;5042158;28;20037;-72
2021/12/11 06:31:21;;;;;;;90.00;30.05;;;;;;;2.02;97.97;101114.09;5044263;28;20071;-71
2021/12/11 06:33:49;;;;;;;94.20;30.73;;;;;;;2.05;98.37;101119.41;5045639;28;20035;-71
2021/12/11 06:36:19;;;;;;;96.93;29.48;;;;;;;2.06;98.38;101121.19;5045295;28;20089;-72
2021/12/11 06:38:47;;;;;;;94.85;30.15;;;;;;;2.08;98.47;101125.63;5050505;28;20029;-71
2021/12/11 06:41:14;;;;;;;95.72;29.35;;;;;;;2.12;98.70;101121.56;5045046;28;20021;-71
2021/12/11 06:43:40;;;;;;;94.60;31.77;;;;;;;2.13;98.50;101128.50;5045298;28;20084;-71
2021/12/11 06:46:07;;;;;;;104.18;32.17;;;;;;;2.15;98.38;101137.19;5045211;28;20037;-72
2021/12/11 06:48:33;;;;;;;98.72;31.08;;;;;;;2.16;98.89;101149.25;5048313;28;20082;-71
2021/12/11 06:51:00;;;;;;;110.18;32.65;;;;;;;2.18;98.92;101146.78;5051665;28;20052;-71
2021/12/11 06:53:32;;;;;;;109.40;32.45;;;;;;;2.19;98.48;101149.44;5045425;28;20195;-71
2021/12/11 06:55:58;;;;;;;113.30;34.08;;;;;;;2.22;98.99;101154.75;5045144;28;20303;-71
2021/12/11 06:58:25;;;;;;;113.20;34.03;;;;;;;2.24;98.82;101154.84;5045280;28;20029;-73
2021/12/11 07:00:51;;;;;;;107.07;31.20;;;;;;;2.25;99.06;101160.09;5045067;28;20049;-73
2021/12/11 07:03:16;;;;;;;119.78;34.92;;;;;;;2.28;98.85;101155.94;5047700;28;20079;-73
2021/12/11 07:05:42;;;;;;;113.47;33.83;;;;;;;2.29;99.46;101160.28;5048876;28;20079;-73
2021/12/11 07:08:08;;;;;;;120.10;35.15;;;;;;;2.32;99.40;101165.59;5044788;28;20041;-73
2021/12/11 07:10:34;;;;;;;110.55;33.20;;;;;;;2.34;98.83;101174.31;5045196;28;20036;-73
2021/12/11 07:13:00;;;;;;;119.00;35.22;;;;;;;2.35;98.79;101165.81;5044804;28;20033;-73
2021/12/11 07:15:26;;;;;;;119.65;35.30;;;;;;;2.38;98.85;101178.88;5047100;28;20409;-73
2021/12/11 07:17:51;;;;;;;116.03;36.30;;;;;;;2.39;99.05;101178.03;5044703;28;20331;-72
2021/12/11 07:20:17;;;;;;;111.63;34.55;;;;;;;2.42;98.87;101184.28;5044811;28;20029;-73
2021/12/11 07:22:44;;;;;;;116.05;34.67;;;;;;;2.44;99.12;101187.81;5044010;28;20283;-73
2021/12/11 07:25:32;;;;;;;113.10;33.83;;;;;;;2.45;99.26;101188.75;5043761;28;20096;-72
2021/12/11 07:27:59;;;;;;;108.85;34.78;;;;;;;2.46;98.79;101190.50;5044231;28;20056;-71
2021/12/11 07:30:25;;;;;;;104.40;33.22;;;;;;;2.49;99.32;101207.81;5045680;28;20292;-71
2021/12/11 07:32:55;;;;;;;102.18;33.10;;;;;;;2.51;99.50;101209.69;5046601;28;20052;-71
2021/12/11 07:35:20;;;;;;;111.10;34.83;;;;;;;2.53;98.99;101207.22;5044359;28;20040;-71
2021/12/11 07:37:49;;;;;;;109.65;33.83;;;;;;;2.56;99.48;101199.69;5044150;28;20291;-71
2021/12/11 07:40:18;;;;;;;108.95;33.05;;;;;;;2.60;99.44;101214.50;5044480;28;20333;-71
2021/12/11 07:42:43;;;;;;;97.30;32.08;;;;;;;2.60;99.19;101210.25;5043375;28;20335;-71
2021/12/11 07:45:09;;;;;;;90.05;30.98;;;;;;;2.63;98.92;101209.53;5051898;28;20037;-71
2021/12/11 07:47:34;;;;;;;104.13;33.83;;;;;;;2.66;99.32;101214.88;5044258;28;20033;-71
2021/12/11 07:50:00;;;;;;;91.88;30.17;;;;;;;2.69;99.27;101219.31;5043965;28;20021;-71
2021/12/11 07:52:25;;;;;;;88.63;28.77;;;;;;;2.73;99.52;101216.16;5046762;28;20044;-71
2021/12/11 07:54:51;;;;;;;96.10;30.23;;;;;;;2.76;99.39;101231.78;5044673;28;20041;-71
2021/12/11 07:57:16;;;;;;;79.82;27.88;;;;;;;2.81;99.48;101230.38;5043598;28;20284;-71
2021/12/11 07:59:42;;;;;;;84.72;27.27;;;;;;;2.83;99.28;101241.66;5045370;28;20029;-72
2021/12/11 08:02:07;;;;;;;86.07;27.67;;;;;;;2.85;99.23;101242.63;5044019;28;20036;-71
2021/12/11 08:04:34;;;;;;;78.13;27.70;;;;;;;2.89;99.92;101249.75;5044629;28;20029;-71
2021/12/11 08:07:00;;;;;;;71.07;24.92;;;;;;;2.92;99.47;101252.50;5043121;28;20049;-71
2021/12/11 08:09:25;;;;;;;71.65;24.63;;;;;;;2.93;99.57;101249.13;5042708;28;20151;-71
2021/12/11 08:11:51;;;;;;;73.22;23.70;;;;;;;2.98;99.41;101259.69;5037358;28;20360;-72
2021/12/11 08:14:17;;;;;;;67.50;22.83;;;;;;;3.01;99.02;101261.59;5035745;28;20056;-72
2021/12/11 08:16:48;;;;;;;63.10;21.55;;;;;;;3.06;99.51;101262.75;5041330;28;20033;-72
2021/12/11 08:19:20;;;;;;;57.53;19.45;;;;;;;3.10;99.17;101269.84;5038077;28;20391;-72
2021/12/11 08:21:48;;;;;;;64.57;20.98;;;;;;;3.14;99.20;101276.97;5075904;28;20025;-72
2021/12/11 08:24:15;;;;;;;56.28;20.20;;;;;;;3.17;98.82;101271.13;5042582;28;20021;-72
2021/12/11 08:26:42;;;;;;;57.92;17.92;;;;;;;3.21;98.85;101280.81;5071338;28;20046;-72
2021/12/11 08:29:10;;;;;;;49.63;16.80;;;;;;;3.25;98.80;101291.38;5040555;28;20318;-72
2021/12/11 08:31:38;;;;;;;52.13;16.47;;;;;;;3.30;98.83;101290.00;5044431;28;20056;-72
2021/12/11 08:34:04;;;;;;;41.53;15.10;;;;;;;3.37;98.63;101300.66;5042632;28;20037;-72
2021/12/11 08:36:30;;;;;;;43.85;15.75;;;;;;;3.41;98.47;101298.34;5041000;28;20108;-73
2021/12/11 08:38:56;;;;;;;56.40;15.32;;;;;;;3.46;98.57;101307.25;5042495;28;20056;-72
2021/12/11 08:41:24;;;;;;;44.78;14.63;;;;;;;3.53;98.66;101303.34;5040642;28;20021;-71
2021/12/11 08:43:58;;;;;;;39.28;13.52;;;;;;;3.57;98.68;101307.88;5044733;28;20033;-72
2021/12/11 08:46:27;;;;;;;39.72;12.23;;;;;;;3.63;98.53;101310.81;5041340;28;20025;-71
2021/12/11 08:48:55;;;;;;;45.00;13.55;;;;;;;3.71;98.41;101312.94;5041609;28;20010;-72
2021/12/11 08:51:26;;;;;;;40.60;11.95;;;;;;;3.75;98.33;101325.22;5040168;28;20095;-71
2021/12/11 08:53:51;;;;;;;35.40;10.77;;;;;;;3.79;98.09;101327.19;5042437;28;20045;-71
2021/12/11 08:56:18;;;;;;;34.72;10.40;;;;;;;3.80;97.92;101328.97;5040913;28;20049;-71
2021/12/11 08:58:47;;;;;;;34.95;9.90;;;;;;;3.80;97.47;101335.00;5042371;28;20059;-72
2021/12/11 09:01:24;;;;;;;29.08;10.48;;;;;;;3.82;97.79;101340.25;5043976;28;20041;-71
2021/12/11 09:03:55;;;;;;;25.83;9.13;;;;;;;3.87;97.79;101350.81;5068712;28;20019;-71
2021/12/11 09:06:28;;;;;;;35.22;8.50;;;;;;;3.90;97.52;101349.34;5037402;28;20217;-72
2021/12/11 09:09:01;;;;;;;26.55;8.73;;;;;;;3.96;97.45;101356.53;5038882;28;20067;-71
2021/12/11 09:11:31;;;;;;;33.08;11.18;;;;;;;4.03;97.65;101371.56;5068080;28;20040;-72
2021/12/11 09:14:16;;;;;;;31.17;8.95;;;;;;;4.14;97.84;101379.91;5038501;28;20108;-72
2021/12/11 09:16:47;;;;;;;25.45;8.48;;;;;;;4.19;97.55;101386.25;5040027;28;20248;-72
2021/12/11 09:19:21;;;;;;;28.52;8.88;;;;;;;4.26;97.70;101398.69;5038846;28;20025;-72
2021/12/11 09:21:49;;;;;;;26.23;8.70;;;;;;;4.30;97.69;101403.25;5065768;28;20181;-72
2021/12/11 09:24:34;;;;;;;29.70;8.20;;;;;;;4.32;97.72;101411.94;5038369;28;20037;-72
2021/12/11 09:27:11;;;;;;;29.63;8.13;;;;;;;4.33;97.96;101408.56;5039900;28;20044;-71
2021/12/11 09:30:06;;;;;;;20.33;7.28;;;;;;;4.39;97.82;101417.44;5040719;28;20029;-71
2021/12/11 09:32:48;;;;;;;25.63;8.32;;;;;;;4.45;98.05;101417.84;5040228;28;20676;-72
2021/12/11 09:35:25;;;;;;;23.48;7.47;;;;;;;4.52;98.11;101435.44;5041987;28;20017;-72
2021/12/11 09:37:54;;;;;;;26.15;7.45;;;;;;;4.57;98.32;101433.13;5039478;28;20025;-72
2021/12/11 09:40:32;;;;;;;25.52;7.38;;;;;;;4.60;97.88;101441.91;5035008;28;20488;-72
2021/12/11 09:42:57;;;;;;;21.55;7.18;;;;;;;4.64;98.23;101449.03;5038107;28;20032;-72
2021/12/11 09:45:26;;;;;;;20.92;6.45;;;;;;;4.69;98.50;101452.78;5040564;28;20030;-72
2021/12/11 09:47:57;;;;;;;26.05;7.88;;;;;;;4.75;98.26;101459.09;5072133;28;20022;-72
2021/12/11 09:50:30;;;;;;;20.52;7.97;;;;;;;4.77;98.49;101463.53;5039771;28;20260;-72
2021/12/11 09:52:56;;;;;;;22.58;7.18;;;;;;;4.76;97.81;101469.50;5041716;28;20183;-72
2021/12/11 09:55:27;;;;;;;22.73;7.97;;;;;;;4.78;98.13;101469.59;5072539;28;20022;-72
2021/12/11 09:57:56;;;;;;;20.73;7.60;;;;;;;4.77;97.92;101463.53;5041132;28;20049;-72
2021/12/11 10:00:37;;;;;;;15.80;5.78;;;;;;;4.77;97.59;101476.44;5039369;28;20037;-72
2021/12/11 10:03:05;;;;;;;19.15;6.05;;;;;;;4.78;98.16;101472.16;5041278;28;20022;-73
2021/12/11 10:05:56;;;;;;;18.30;6.60;;;;;;;4.78;97.67;101472.16;5036969;28;20045;-71
2021/12/11 10:08:57;;;;;;;15.70;6.03;;;;;;;4.78;97.46;101485.06;5047277;28;20049;-71
2021/12/11 10:11:30;;;;;;;19.10;6.03;;;;;;;4.79;97.58;101481.69;5049694;28;20040;-71
2021/12/11 10:14:01;;;;;;;14.95;5.93;;;;;;;4.80;97.73;101491.22;5035526;28;20022;-71
2021/12/11 10:16:32;;;;;;;14.57;5.53;;;;;;;4.80;97.73;101496.41;5049049;28;20057;-71
2021/12/11 10:18:57;;;;;;;16.67;6.22;;;;;;;4.80;97.33;101496.41;5048952;28;20063;-71
2021/12/11 10:21:32;;;;;;;18.27;6.35;;;;;;;4.81;97.63;101505.94;5049674;28;20033;-71
2021/12/11 10:24:01;;;;;;;20.10;6.65;;;;;;;4.82;97.74;101507.69;5051054;28;20049;-71
2021/12/11 10:26:28;;;;;;;16.65;6.28;;;;;;;4.84;97.88;101509.56;5048385;28;20055;-71
2021/12/11 10:29:01;;;;;;;20.77;7.97;;;;;;;4.86;97.70;101512.22;5049807;28;20095;-71
2021/12/11 10:31:34;;;;;;;20.15;7.53;;;;;;;4.90;97.61;101510.72;5049566;28;20045;-71
2021/12/11 10:34:03;;;;;;;17.38;7.15;;;;;;;4.97;98.18;101515.44;5048533;28;20291;-71
2021/12/11 10:36:32;;;;;;;18.30;7.30;;;;;;;5.06;97.63;101510.78;5045709;28;20025;-71
2021/12/11 10:39:01;;;;;;;21.07;8.30;;;;;;;5.09;97.48;101520.41;5048423;28;20021;-71
2021/12/11 10:41:28;;;;;;;24.73;8.15;;;;;;;5.12;97.23;101518.00;5048427;28;20297;-71
2021/12/11 10:43:58;;;;;;;22.83;7.25;;;;;;;5.13;96.90;101523.25;5047814;28;20061;-71
2021/12/11 10:46:34;;;;;;;25.08;7.93;;;;;;;5.16;97.36;101523.41;5050559;28;20230;-71
2021/12/11 10:49:02;;;;;;;19.42;7.13;;;;;;;5.22;97.11;101539.25;5048583;28;20021;-71
2021/12/11 10:51:32;;;;;;;20.27;7.07;;;;;;;5.27;96.53;101538.63;5047709;28;20049;-71
2021/12/11 10:53:59;;;;;;;21.58;6.68;;;;;;;5.33;96.90;101544.13;5048133;28;20037;-71
2021/12/11 10:56:26;;;;;;;23.70;7.63;;;;;;;5.38;96.42;101547.88;5047861;28;20037;-71
2021/12/11 10:58:56;;;;;;;21.55;7.10;;;;;;;5.38;96.68;101548.75;5048518;28;20029;-71
2021/12/11 11:01:34;;;;;;;17.70;7.03;;;;;;;5.40;96.10;101548.84;5054562;28;20041;-71
2021/12/11 11:04:07;;;;;;;21.00;6.45;;;;;;;5.39;95.96;101557.44;5048397;28;20076;-71
2021/12/11 11:06:33;;;;;;;19.73;7.32;;;;;;;5.39;95.93;101566.06;5047863;28;20026;-71
2021/12/11 11:08:58;;;;;;;16.38;7.35;;;;;;;5.39;95.72;101563.47;5049065;28;20036;-71
2021/12/11 11:11:27;;;;;;;17.48;7.28;;;;;;;5.38;95.60;101573.72;5050508;28;20017;-71
2021/12/11 11:13:53;;;;;;;24.73;8.77;;;;;;;5.38;95.50;101579.78;5050807;28;20033;-71
2021/12/11 11:16:21;;;;;;;21.60;7.63;;;;;;;5.37;95.37;101583.19;5047802;28;20085;-71
2021/12/11 11:18:48;;;;;;;21.25;7.53;;;;;;;5.39;96.05;101589.31;5045348;28;20052;-71
2021/12/11 11:21:30;;;;;;;24.58;7.40;;;;;;;5.42;96.38;101592.88;5044303;28;20017;-71
2021/12/11 11:23:56;;;;;;;22.20;7.25;;;;;;;5.44;96.02;101594.75;5047702;28;20026;-71
2021/12/11 11:26:26;;;;;;;24.35;7.85;;;;;;;5.46;96.31;101600.00;5045870;28;20053;-71
2021/12/11 11:28:53;;;;;;;23.67;8.40;;;;;;;5.47;96.54;101600.06;5044216;28;20066;-71
2021/12/11 11:31:22;;;;;;;24.92;8.98;;;;;;;5.50;96.59;101599.38;5045984;28;20283;-71
2021/12/11 11:33:48;;;;;;;26.27;9.45;;;;;;;5.54;96.25;101603.91;5044237;28;20056;-71
2021/12/11 11:36:19;;;;;;;30.85;10.40;;;;;;;5.55;96.08;101606.56;5044150;28;20029;-71
2021/12/11 11:38:48;;;;;;;32.05;11.98;;;;;;;5.58;96.18;101605.88;5043463;28;20033;-71